sensor_id;sensor_type;location;lat;lon;timestamp;temperature;humidity
6690;DHT22;3382;51.576;8.076;2023-05-07T00:00:33;15.90;99.90
6690;DHT22;3382;51.576;8.076;2023-05-07T00:02:59;15.90;99.90
6690;DHT22;3382;51.576;8.076;2023-05-07T00:05:25;16.00;99.90
6690;DHT22;3382;51.576;8.076;2023-05-07T00:07:51;15.80;99.90
6690;DHT22;3382;51.576;8.076;2023-05-07T00:10:18;15.90;99.90
6690;DHT22;3382;51.576;8.076;2023-05-07T00:12:44;15.80;99.90
6690;DHT22;3382;51.576;8.076;2023-05-07T00:15:10;15.80;99.90
6690;DHT22;3382;51.576;8.076;2023-05-07T00:17:36;15.80;99.90
6690;DHT22;3382;51.576;8.076;2023-05-07T00:20:03;15.80;99.90
6690;DHT22;3382;51.576;8.076;2023-05-07T00:22:29;15.80;99.90
6690;DHT22;3382;51.576;8.076;2023-05-07T00:24:55;15.80;99.90
6690;DHT22;3382;51.576;8.076;2023-05-07T00:27:22;15.80;99.90
6690;DHT22;3382;51.576;8.076;2023-05-07T00:29:47;15.80;99.90
6690;DHT22;3382;51.576;8.076;2023-05-07T00:32:13;15.80;99.90
6690;DHT22;3382;51.576;8.076;2023-05-07T00:34:38;15.70;99.90
6690;DHT22;3382;51.576;8.076;2023-05-07T00:37:05;15.70;99.90
6690;DHT22;3382;51.576;8.076;2023-05-07T00:39:33;15.70;99.90
6690;DHT22;3382;51.576;8.076;2023-05-07T00:41:59;15.70;99.90
6690;DHT22;3382;51.576;8.076;2023-05-07T00:44:26;15.70;99.90
6690;DHT22;3382;51.576;8.076;2023-05-07T00:46:52;15.80;99.90
6690;DHT22;3382;51.576;8.076;2023-05-07T00:49:21;15.70;99.90
6690;DHT22;3382;51.576;8.076;2023-05-07T00:51:47;15.70;99.90
6690;DHT22;3382;51.576;8.076;2023-05-07T00:54:13;15.70;99.90
6690;DHT22;3382;51.576;8.076;2023-05-07T00:56:39;15.70;99.90
6690;DHT22;3382;51.576;8.076;2023-05-07T00:59:05;15.70;99.90
6690;DHT22;3382;51.576;8.076;2023-05-07T01:01:32;15.70;99.90
6690;DHT22;3382;51.576;8.076;2023-05-07T01:03:57;15.70;99.90
6690;DHT22;3382;51.576;8.076;2023-05-07T01:06:24;15.70;99.90
6690;DHT22;3382;51.576;8.076;2023-05-07T01:08:51;15.70;99.90
6690;DHT22;3382;51.576;8.076;2023-05-07T01:11:18;15.70;99.90
6690;DHT22;3382;51.576;8.076;2023-05-07T01:13:46;15.70;99.90
6690;DHT22;3382;51.576;8.076;2023-05-07T01:16:12;15.70;99.90
6690;DHT22;3382;51.576;8.076;2023-05-07T01:18:38;15.70;99.90
6690;DHT22;3382;51.576;8.076;2023-05-07T01:21:04;15.70;99.90
6690;DHT22;3382;51.576;8.076;2023-05-07T01:23:30;15.70;99.90
6690;DHT22;3382;51.576;8.076;2023-05-07T01:25:56;15.70;99.90
6690;DHT22;3382;51.576;8.076;2023-05-07T01:28:21;15.70;99.90
6690;DHT22;3382;51.576;8.076;2023-05-07T01:30:50;15.60;99.90
6690;DHT22;3382;51.576;8.076;2023-05-07T01:33:20;15.60;99.90
6690;DHT22;3382;51.576;8.076;2023-05-07T01:35:50;15.60;99.90
6690;DHT22;3382;51.576;8.076;2023-05-07T01:38:17;15.60;99.90
6690;DHT22;3382;51.576;8.076;2023-05-07T01:40:43;15.60;99.90
6690;DHT22;3382;51.576;8.076;2023-05-07T01:43:09;15.60;99.90
6690;DHT22;3382;51.576;8.076;2023-05-07T01:45:36;15.60;99.90
6690;DHT22;3382;51.576;8.076;2023-05-07T01:48:02;15.60;99.90
6690;DHT22;3382;51.576;8.076;2023-05-07T01:50:29;15.70;99.90
6690;DHT22;3382;51.576;8.076;2023-05-07T01:52:55;15.70;99.90
6690;DHT22;3382;51.576;8.076;2023-05-07T01:55:21;15.70;99.90
6690;DHT22;3382;51.576;8.076;2023-05-07T01:57:47;15.60;99.90
6690;DHT22;3382;51.576;8.076;2023-05-07T02:00:12;15.60;99.90
6690;DHT22;3382;51.576;8.076;2023-05-07T02:02:38;15.60;99.90
6690;DHT22;3382;51.576;8.076;2023-05-07T02:05:04;15.50;99.90
6690;DHT22;3382;51.576;8.076;2023-05-07T02:07:30;15.50;99.90
6690;DHT22;3382;51.576;8.076;2023-05-07T02:10:02;15.50;99.90
6690;DHT22;3382;51.576;8.076;2023-05-07T02:12:28;15.50;99.90
6690;DHT22;3382;51.576;8.076;2023-05-07T02:14:53;15.50;99.90
6690;DHT22;3382;51.576;8.076;2023-05-07T02:17:19;15.60;99.90
6690;DHT22;3382;51.576;8.076;2023-05-07T02:19:45;15.50;99.90
6690;DHT22;3382;51.576;8.076;2023-05-07T02:22:10;15.50;99.90
6690;DHT22;3382;51.576;8.076;2023-05-07T02:24:36;15.60;99.90
6690;DHT22;3382;51.576;8.076;2023-05-07T02:27:01;15.50;99.90
6690;DHT22;3382;51.576;8.076;2023-05-07T02:29:28;15.50;99.90
6690;DHT22;3382;51.576;8.076;2023-05-07T02:31:54;15.60;99.90
6690;DHT22;3382;51.576;8.076;2023-05-07T02:34:20;15.50;99.90
6690;DHT22;3382;51.576;8.076;2023-05-07T02:36:46;15.50;99.90
6690;DHT22;3382;51.576;8.076;2023-05-07T02:39:13;15.50;99.90
6690;DHT22;3382;51.576;8.076;2023-05-07T02:41:38;15.50;99.90
6690;DHT22;3382;51.576;8.076;2023-05-07T02:44:04;15.50;99.90
6690;DHT22;3382;51.576;8.076;2023-05-07T02:46:30;15.50;99.90
6690;DHT22;3382;51.576;8.076;2023-05-07T02:48:55;15.50;99.90
6690;DHT22;3382;51.576;8.076;2023-05-07T02:51:22;15.50;99.90
6690;DHT22;3382;51.576;8.076;2023-05-07T02:53:48;15.50;99.90
6690;DHT22;3382;51.576;8.076;2023-05-07T02:56:14;15.50;99.90
6690;DHT22;3382;51.576;8.076;2023-05-07T02:58:39;15.40;99.90
6690;DHT22;3382;51.576;8.076;2023-05-07T03:01:08;15.40;99.90
6690;DHT22;3382;51.576;8.076;2023-05-07T03:03:34;15.40;99.90
6690;DHT22;3382;51.576;8.076;2023-05-07T03:06:00;15.40;99.90
6690;DHT22;3382;51.576;8.076;2023-05-07T03:08:26;15.40;99.90
6690;DHT22;3382;51.576;8.076;2023-05-07T03:10:52;15.40;99.90
6690;DHT22;3382;51.576;8.076;2023-05-07T03:13:17;15.40;99.90
6690;DHT22;3382;51.576;8.076;2023-05-07T03:15:43;15.30;99.90
6690;DHT22;3382;51.576;8.076;2023-05-07T03:18:09;15.30;99.90
6690;DHT22;3382;51.576;8.076;2023-05-07T03:20:34;15.30;99.90
6690;DHT22;3382;51.576;8.076;2023-05-07T03:23:01;15.30;99.90
6690;DHT22;3382;51.576;8.076;2023-05-07T03:25:27;15.20;99.90
6690;DHT22;3382;51.576;8.076;2023-05-07T03:27:53;15.20;99.90
6690;DHT22;3382;51.576;8.076;2023-05-07T03:30:18;15.20;99.90
6690;DHT22;3382;51.576;8.076;2023-05-07T03:32:44;15.20;99.90
6690;DHT22;3382;51.576;8.076;2023-05-07T03:35:09;15.20;99.90
6690;DHT22;3382;51.576;8.076;2023-05-07T03:37:35;15.20;99.90
6690;DHT22;3382;51.576;8.076;2023-05-07T03:40:01;15.20;99.90
6690;DHT22;3382;51.576;8.076;2023-05-07T03:42:28;15.20;99.90
6690;DHT22;3382;51.576;8.076;2023-05-07T03:44:54;15.20;99.90
6690;DHT22;3382;51.576;8.076;2023-05-07T03:47:19;15.20;99.90
6690;DHT22;3382;51.576;8.076;2023-05-07T03:49:45;15.20;99.90
6690;DHT22;3382;51.576;8.076;2023-05-07T03:52:10;15.20;99.90
6690;DHT22;3382;51.576;8.076;2023-05-07T03:54:36;15.20;99.90
6690;DHT22;3382;51.576;8.076;2023-05-07T03:57:02;15.20;99.90
6690;DHT22;3382;51.576;8.076;2023-05-07T03:59:27;15.20;99.90
6690;DHT22;3382;51.576;8.076;2023-05-07T04:01:53;15.20;99.90
6690;DHT22;3382;51.576;8.076;2023-05-07T04:04:19;15.20;99.90
6690;DHT22;3382;51.576;8.076;2023-05-07T04:06:45;15.20;99.90
6690;DHT22;3382;51.576;8.076;2023-05-07T04:09:11;15.20;99.90
6690;DHT22;3382;51.576;8.076;2023-05-07T04:11:36;15.20;99.90
6690;DHT22;3382;51.576;8.076;2023-05-07T04:14:02;15.20;99.90
6690;DHT22;3382;51.576;8.076;2023-05-07T04:16:27;15.10;99.90
6690;DHT22;3382;51.576;8.076;2023-05-07T04:18:53;15.10;99.90
6690;DHT22;3382;51.576;8.076;2023-05-07T04:21:20;15.10;99.90
6690;DHT22;3382;51.576;8.076;2023-05-07T04:23:49;15.10;99.90
6690;DHT22;3382;51.576;8.076;2023-05-07T04:26:15;15.10;99.90
6690;DHT22;3382;51.576;8.076;2023-05-07T04:28:41;15.10;99.90
6690;DHT22;3382;51.576;8.076;2023-05-07T04:31:07;15.10;99.90
6690;DHT22;3382;51.576;8.076;2023-05-07T04:33:33;15.10;99.90
6690;DHT22;3382;51.576;8.076;2023-05-07T04:36:03;15.10;99.90
6690;DHT22;3382;51.576;8.076;2023-05-07T04:38:32;15.10;99.90
6690;DHT22;3382;51.576;8.076;2023-05-07T04:41:02;15.10;99.90
6690;DHT22;3382;51.576;8.076;2023-05-07T04:43:28;15.10;99.90
6690;DHT22;3382;51.576;8.076;2023-05-07T04:45:53;15.10;99.90
6690;DHT22;3382;51.576;8.076;2023-05-07T04:48:19;15.10;99.90
6690;DHT22;3382;51.576;8.076;2023-05-07T04:50:49;15.10;99.90
6690;DHT22;3382;51.576;8.076;2023-05-07T04:53:15;15.10;99.90
6690;DHT22;3382;51.576;8.076;2023-05-07T04:55:41;15.10;99.90
6690;DHT22;3382;51.576;8.076;2023-05-07T04:58:07;15.10;99.90
6690;DHT22;3382;51.576;8.076;2023-05-07T05:00:33;15.10;99.90
6690;DHT22;3382;51.576;8.076;2023-05-07T05:02:59;15.10;99.90
6690;DHT22;3382;51.576;8.076;2023-05-07T05:05:24;15.10;99.90
6690;DHT22;3382;51.576;8.076;2023-05-07T05:07:50;15.10;99.90
6690;DHT22;3382;51.576;8.076;2023-05-07T05:10:17;15.10;99.90
6690;DHT22;3382;51.576;8.076;2023-05-07T05:12:42;15.10;99.90
6690;DHT22;3382;51.576;8.076;2023-05-07T05:15:09;15.20;99.90
6690;DHT22;3382;51.576;8.076;2023-05-07T05:17:35;15.10;99.90
6690;DHT22;3382;51.576;8.076;2023-05-07T05:20:02;15.10;99.90
6690;DHT22;3382;51.576;8.076;2023-05-07T05:22:27;15.10;99.90
6690;DHT22;3382;51.576;8.076;2023-05-07T05:24:55;15.40;99.90
6690;DHT22;3382;51.576;8.076;2023-05-07T05:27:20;15.30;99.90
6690;DHT22;3382;51.576;8.076;2023-05-07T05:29:46;15.20;99.90
6690;DHT22;3382;51.576;8.076;2023-05-07T05:32:11;15.20;99.90
6690;DHT22;3382;51.576;8.076;2023-05-07T05:34:37;15.20;99.90
6690;DHT22;3382;51.576;8.076;2023-05-07T05:37:03;15.20;99.90
6690;DHT22;3382;51.576;8.076;2023-05-07T05:39:28;15.30;99.90
6690;DHT22;3382;51.576;8.076;2023-05-07T05:41:54;15.20;99.90
6690;DHT22;3382;51.576;8.076;2023-05-07T05:44:19;15.20;99.90
6690;DHT22;3382;51.576;8.076;2023-05-07T05:46:45;15.20;99.90
6690;DHT22;3382;51.576;8.076;2023-05-07T05:49:11;15.30;99.90
6690;DHT22;3382;51.576;8.076;2023-05-07T05:51:36;15.30;99.90
6690;DHT22;3382;51.576;8.076;2023-05-07T05:54:02;15.20;99.90
6690;DHT22;3382;51.576;8.076;2023-05-07T05:56:27;15.20;99.90
6690;DHT22;3382;51.576;8.076;2023-05-07T05:58:53;15.20;99.90
6690;DHT22;3382;51.576;8.076;2023-05-07T06:01:19;15.30;99.90
6690;DHT22;3382;51.576;8.076;2023-05-07T06:03:44;15.30;99.90
6690;DHT22;3382;51.576;8.076;2023-05-07T06:06:10;15.30;99.90
6690;DHT22;3382;51.576;8.076;2023-05-07T06:08:36;15.30;99.90
6690;DHT22;3382;51.576;8.076;2023-05-07T06:11:02;15.30;99.90
6690;DHT22;3382;51.576;8.076;2023-05-07T06:13:28;15.40;99.90
6690;DHT22;3382;51.576;8.076;2023-05-07T06:15:53;15.50;99.90
6690;DHT22;3382;51.576;8.076;2023-05-07T06:18:19;15.60;99.90
6690;DHT22;3382;51.576;8.076;2023-05-07T06:20:45;15.70;99.90
6690;DHT22;3382;51.576;8.076;2023-05-07T06:23:10;15.70;99.90
6690;DHT22;3382;51.576;8.076;2023-05-07T06:25:36;15.70;99.90
6690;DHT22;3382;51.576;8.076;2023-05-07T06:28:01;15.70;99.90
6690;DHT22;3382;51.576;8.076;2023-05-07T06:30:27;15.70;99.90
6690;DHT22;3382;51.576;8.076;2023-05-07T06:32:52;15.70;99.90
6690;DHT22;3382;51.576;8.076;2023-05-07T06:35:18;15.80;99.90
6690;DHT22;3382;51.576;8.076;2023-05-07T06:37:44;15.80;99.90
6690;DHT22;3382;51.576;8.076;2023-05-07T06:40:10;15.70;99.90
6690;DHT22;3382;51.576;8.076;2023-05-07T06:42:36;15.80;99.90
6690;DHT22;3382;51.576;8.076;2023-05-07T06:45:02;15.70;99.90
6690;DHT22;3382;51.576;8.076;2023-05-07T06:47:28;15.80;99.90
6690;DHT22;3382;51.576;8.076;2023-05-07T06:49:54;16.00;99.90
6690;DHT22;3382;51.576;8.076;2023-05-07T06:52:19;16.00;99.90
6690;DHT22;3382;51.576;8.076;2023-05-07T06:54:45;16.00;99.90
6690;DHT22;3382;51.576;8.076;2023-05-07T06:57:10;16.00;99.90
6690;DHT22;3382;51.576;8.076;2023-05-07T06:59:36;16.10;99.90
6690;DHT22;3382;51.576;8.076;2023-05-07T07:02:01;16.20;99.90
6690;DHT22;3382;51.576;8.076;2023-05-07T07:04:27;16.20;99.90
6690;DHT22;3382;51.576;8.076;2023-05-07T07:06:54;16.20;99.90
6690;DHT22;3382;51.576;8.076;2023-05-07T07:09:19;16.30;99.90
6690;DHT22;3382;51.576;8.076;2023-05-07T07:11:45;16.30;99.90
6690;DHT22;3382;51.576;8.076;2023-05-07T07:14:10;16.50;99.90
6690;DHT22;3382;51.576;8.076;2023-05-07T07:16:36;16.70;99.90
6690;DHT22;3382;51.576;8.076;2023-05-07T07:19:02;16.70;99.90
6690;DHT22;3382;51.576;8.076;2023-05-07T07:21:27;16.70;99.90
6690;DHT22;3382;51.576;8.076;2023-05-07T07:23:53;16.80;99.90
6690;DHT22;3382;51.576;8.076;2023-05-07T07:26:18;16.70;99.90
6690;DHT22;3382;51.576;8.076;2023-05-07T07:28:45;16.70;99.90
6690;DHT22;3382;51.576;8.076;2023-05-07T07:31:11;16.60;99.90
6690;DHT22;3382;51.576;8.076;2023-05-07T07:33:37;16.70;99.90
6690;DHT22;3382;51.576;8.076;2023-05-07T07:36:03;16.60;99.90
6690;DHT22;3382;51.576;8.076;2023-05-07T07:38:29;16.70;99.90
6690;DHT22;3382;51.576;8.076;2023-05-07T07:40:54;16.70;99.90
6690;DHT22;3382;51.576;8.076;2023-05-07T07:43:20;16.80;99.90
6690;DHT22;3382;51.576;8.076;2023-05-07T07:45:45;16.80;99.90
6690;DHT22;3382;51.576;8.076;2023-05-07T07:48:11;16.80;99.90
6690;DHT22;3382;51.576;8.076;2023-05-07T07:50:37;16.80;99.90
6690;DHT22;3382;51.576;8.076;2023-05-07T07:53:03;16.80;99.90
6690;DHT22;3382;51.576;8.076;2023-05-07T07:55:28;16.80;99.90
6690;DHT22;3382;51.576;8.076;2023-05-07T07:57:54;16.80;99.90
6690;DHT22;3382;51.576;8.076;2023-05-07T08:00:20;16.90;99.90
6690;DHT22;3382;51.576;8.076;2023-05-07T08:02:45;16.90;99.90
6690;DHT22;3382;51.576;8.076;2023-05-07T08:05:11;17.10;99.90
6690;DHT22;3382;51.576;8.076;2023-05-07T08:07:37;17.10;99.90
6690;DHT22;3382;51.576;8.076;2023-05-07T08:10:02;17.00;99.90
6690;DHT22;3382;51.576;8.076;2023-05-07T08:12:28;17.00;99.90
6690;DHT22;3382;51.576;8.076;2023-05-07T08:14:54;17.00;99.90
6690;DHT22;3382;51.576;8.076;2023-05-07T08:17:20;17.00;99.90
6690;DHT22;3382;51.576;8.076;2023-05-07T08:19:47;17.00;99.90
6690;DHT22;3382;51.576;8.076;2023-05-07T08:22:13;17.00;99.90
6690;DHT22;3382;51.576;8.076;2023-05-07T08:24:39;17.00;99.90
6690;DHT22;3382;51.576;8.076;2023-05-07T08:27:05;17.00;99.90
6690;DHT22;3382;51.576;8.076;2023-05-07T08:29:30;17.00;99.90
6690;DHT22;3382;51.576;8.076;2023-05-07T08:31:56;17.10;99.90
6690;DHT22;3382;51.576;8.076;2023-05-07T08:34:22;17.20;99.90
6690;DHT22;3382;51.576;8.076;2023-05-07T08:36:48;17.20;99.90
6690;DHT22;3382;51.576;8.076;2023-05-07T08:39:17;17.40;99.90
6690;DHT22;3382;51.576;8.076;2023-05-07T08:41:46;17.40;99.90
6690;DHT22;3382;51.576;8.076;2023-05-07T08:44:13;17.40;99.90
6690;DHT22;3382;51.576;8.076;2023-05-07T08:46:41;17.40;99.90
6690;DHT22;3382;51.576;8.076;2023-05-07T08:49:08;17.60;99.90
6690;DHT22;3382;51.576;8.076;2023-05-07T08:51:34;17.80;99.90
6690;DHT22;3382;51.576;8.076;2023-05-07T08:54:01;17.80;99.90
6690;DHT22;3382;51.576;8.076;2023-05-07T08:56:27;17.90;99.90
6690;DHT22;3382;51.576;8.076;2023-05-07T08:58:52;17.90;99.90
6690;DHT22;3382;51.576;8.076;2023-05-07T09:01:21;18.00;99.90
6690;DHT22;3382;51.576;8.076;2023-05-07T09:03:47;18.20;99.90
6690;DHT22;3382;51.576;8.076;2023-05-07T09:06:13;18.30;99.90
6690;DHT22;3382;51.576;8.076;2023-05-07T09:08:39;18.40;99.90
6690;DHT22;3382;51.576;8.076;2023-05-07T09:11:04;18.50;99.90
6690;DHT22;3382;51.576;8.076;2023-05-07T09:13:30;18.70;99.90
6690;DHT22;3382;51.576;8.076;2023-05-07T09:15:56;18.80;99.90
6690;DHT22;3382;51.576;8.076;2023-05-07T09:18:24;18.80;99.90
6690;DHT22;3382;51.576;8.076;2023-05-07T09:20:50;18.80;99.90
6690;DHT22;3382;51.576;8.076;2023-05-07T09:23:16;18.80;99.90
6690;DHT22;3382;51.576;8.076;2023-05-07T09:25:42;18.90;99.90
6690;DHT22;3382;51.576;8.076;2023-05-07T09:28:07;18.90;99.90
6690;DHT22;3382;51.576;8.076;2023-05-07T09:30:35;18.90;99.90
6690;DHT22;3382;51.576;8.076;2023-05-07T09:33:02;19.10;99.90
6690;DHT22;3382;51.576;8.076;2023-05-07T09:35:28;19.10;99.90
6690;DHT22;3382;51.576;8.076;2023-05-07T09:37:55;19.20;99.90
6690;DHT22;3382;51.576;8.076;2023-05-07T09:40:25;19.30;99.90
6690;DHT22;3382;51.576;8.076;2023-05-07T09:42:51;19.30;99.90
6690;DHT22;3382;51.576;8.076;2023-05-07T09:45:27;19.40;99.90
6690;DHT22;3382;51.576;8.076;2023-05-07T09:47:57;19.40;99.90
6690;DHT22;3382;51.576;8.076;2023-05-07T09:50:28;19.40;99.90
6690;DHT22;3382;51.576;8.076;2023-05-07T09:52:55;19.50;99.90
6690;DHT22;3382;51.576;8.076;2023-05-07T09:55:21;19.70;99.90
6690;DHT22;3382;51.576;8.076;2023-05-07T09:57:50;19.70;99.90
6690;DHT22;3382;51.576;8.076;2023-05-07T10:00:18;19.60;99.90
6690;DHT22;3382;51.576;8.076;2023-05-07T10:02:46;19.70;99.90
6690;DHT22;3382;51.576;8.076;2023-05-07T10:05:14;19.80;99.90
6690;DHT22;3382;51.576;8.076;2023-05-07T10:07:40;19.80;99.90
6690;DHT22;3382;51.576;8.076;2023-05-07T10:10:07;20.00;99.90
6690;DHT22;3382;51.576;8.076;2023-05-07T10:12:32;20.20;99.90
6690;DHT22;3382;51.576;8.076;2023-05-07T10:15:08;20.30;99.90
6690;DHT22;3382;51.576;8.076;2023-05-07T10:17:38;20.30;99.90
6690;DHT22;3382;51.576;8.076;2023-05-07T10:20:05;20.30;99.90
6690;DHT22;3382;51.576;8.076;2023-05-07T10:22:51;20.30;99.90
6690;DHT22;3382;51.576;8.076;2023-05-07T10:25:21;20.20;99.90
6690;DHT22;3382;51.576;8.076;2023-05-07T10:27:49;20.30;99.90
6690;DHT22;3382;51.576;8.076;2023-05-07T10:30:40;20.30;99.90
6690;DHT22;3382;51.576;8.076;2023-05-07T10:33:11;20.30;99.90
6690;DHT22;3382;51.576;8.076;2023-05-07T10:35:41;20.40;99.90
6690;DHT22;3382;51.576;8.076;2023-05-07T10:38:07;20.50;99.90
6690;DHT22;3382;51.576;8.076;2023-05-07T10:40:33;20.60;99.90
6690;DHT22;3382;51.576;8.076;2023-05-07T10:43:01;20.70;99.90
6690;DHT22;3382;51.576;8.076;2023-05-07T10:45:28;20.70;99.90
6690;DHT22;3382;51.576;8.076;2023-05-07T11:06:15;21.30;99.90
6690;DHT22;3382;51.576;8.076;2023-05-07T11:08:57;21.10;99.90
6690;DHT22;3382;51.576;8.076;2023-05-07T11:11:45;21.50;99.90
6690;DHT22;3382;51.576;8.076;2023-05-07T11:14:13;21.20;99.90
6690;DHT22;3382;51.576;8.076;2023-05-07T11:16:41;21.20;99.90
6690;DHT22;3382;51.576;8.076;2023-05-07T11:19:07;21.30;99.90
6690;DHT22;3382;51.576;8.076;2023-05-07T11:21:37;21.30;99.90
6690;DHT22;3382;51.576;8.076;2023-05-07T11:24:05;21.30;99.90
6690;DHT22;3382;51.576;8.076;2023-05-07T11:26:59;21.20;99.90
6690;DHT22;3382;51.576;8.076;2023-05-07T11:29:24;21.00;99.90
6690;DHT22;3382;51.576;8.076;2023-05-07T11:31:54;20.80;99.90
6690;DHT22;3382;51.576;8.076;2023-05-07T11:34:25;20.90;99.90
6690;DHT22;3382;51.576;8.076;2023-05-07T11:36:51;20.90;99.90
6690;DHT22;3382;51.576;8.076;2023-05-07T11:39:35;20.90;99.90
6690;DHT22;3382;51.576;8.076;2023-05-07T11:42:01;21.00;99.90
6690;DHT22;3382;51.576;8.076;2023-05-07T11:44:47;21.10;99.90
6690;DHT22;3382;51.576;8.076;2023-05-07T11:47:18;21.20;99.90
6690;DHT22;3382;51.576;8.076;2023-05-07T11:49:49;21.10;99.90
6690;DHT22;3382;51.576;8.076;2023-05-07T11:52:16;21.20;99.90
6690;DHT22;3382;51.576;8.076;2023-05-07T11:54:53;21.40;99.90
6690;DHT22;3382;51.576;8.076;2023-05-07T11:57:18;21.50;99.90
6690;DHT22;3382;51.576;8.076;2023-05-07T11:59:45;21.30;99.90
6690;DHT22;3382;51.576;8.076;2023-05-07T12:02:17;21.10;99.90
6690;DHT22;3382;51.576;8.076;2023-05-07T12:04:42;21.20;99.90
6690;DHT22;3382;51.576;8.076;2023-05-07T12:07:15;21.30;99.90
6690;DHT22;3382;51.576;8.076;2023-05-07T12:09:44;21.30;99.90
6690;DHT22;3382;51.576;8.076;2023-05-07T12:12:11;21.40;99.90
6690;DHT22;3382;51.576;8.076;2023-05-07T12:14:40;21.30;99.90
6690;DHT22;3382;51.576;8.076;2023-05-07T12:17:10;21.40;99.90
6690;DHT22;3382;51.576;8.076;2023-05-07T12:19:37;21.40;99.90
6690;DHT22;3382;51.576;8.076;2023-05-07T12:22:04;21.40;99.90
6690;DHT22;3382;51.576;8.076;2023-05-07T12:24:48;21.30;99.90
6690;DHT22;3382;51.576;8.076;2023-05-07T12:27:14;21.20;99.90
6690;DHT22;3382;51.576;8.076;2023-05-07T12:29:57;21.20;99.90
6690;DHT22;3382;51.576;8.076;2023-05-07T12:32:24;21.20;99.90
6690;DHT22;3382;51.576;8.076;2023-05-07T12:34:50;21.20;99.90
6690;DHT22;3382;51.576;8.076;2023-05-07T12:37:16;21.20;99.90
6690;DHT22;3382;51.576;8.076;2023-05-07T12:39:48;21.20;99.90
6690;DHT22;3382;51.576;8.076;2023-05-07T12:42:20;21.20;99.90
6690;DHT22;3382;51.576;8.076;2023-05-07T12:44:51;21.10;99.90
6690;DHT22;3382;51.576;8.076;2023-05-07T12:47:17;21.00;99.90
6690;DHT22;3382;51.576;8.076;2023-05-07T12:49:43;21.00;99.90
6690;DHT22;3382;51.576;8.076;2023-05-07T12:52:11;21.00;99.90
6690;DHT22;3382;51.576;8.076;2023-05-07T12:54:38;21.00;99.90
6690;DHT22;3382;51.576;8.076;2023-05-07T12:57:08;20.90;99.90
6690;DHT22;3382;51.576;8.076;2023-05-07T12:59:37;21.00;99.90
6690;DHT22;3382;51.576;8.076;2023-05-07T13:02:04;21.00;99.90
6690;DHT22;3382;51.576;8.076;2023-05-07T13:04:29;21.00;99.90
6690;DHT22;3382;51.576;8.076;2023-05-07T13:06:55;21.00;99.90
6690;DHT22;3382;51.576;8.076;2023-05-07T13:09:20;21.00;99.90
6690;DHT22;3382;51.576;8.076;2023-05-07T13:11:46;20.90;99.90
6690;DHT22;3382;51.576;8.076;2023-05-07T13:14:12;21.10;99.90
6690;DHT22;3382;51.576;8.076;2023-05-07T13:16:37;21.20;99.90
6690;DHT22;3382;51.576;8.076;2023-05-07T13:19:03;21.20;99.90
6690;DHT22;3382;51.576;8.076;2023-05-07T13:21:29;21.30;99.90
6690;DHT22;3382;51.576;8.076;2023-05-07T13:23:57;21.30;99.90
6690;DHT22;3382;51.576;8.076;2023-05-07T13:26:23;21.40;99.90
6690;DHT22;3382;51.576;8.076;2023-05-07T13:28:49;21.50;99.90
6690;DHT22;3382;51.576;8.076;2023-05-07T13:31:14;21.50;99.90
6690;DHT22;3382;51.576;8.076;2023-05-07T13:33:40;21.50;99.90
6690;DHT22;3382;51.576;8.076;2023-05-07T13:36:06;21.50;99.90
6690;DHT22;3382;51.576;8.076;2023-05-07T13:38:32;21.70;99.90
6690;DHT22;3382;51.576;8.076;2023-05-07T13:40:57;21.80;99.90
6690;DHT22;3382;51.576;8.076;2023-05-07T13:43:24;22.00;99.90
6690;DHT22;3382;51.576;8.076;2023-05-07T13:45:50;22.10;99.90
6690;DHT22;3382;51.576;8.076;2023-05-07T13:48:16;22.10;99.90
6690;DHT22;3382;51.576;8.076;2023-05-07T13:50:41;22.20;99.90
6690;DHT22;3382;51.576;8.076;2023-05-07T13:53:08;22.30;99.90
6690;DHT22;3382;51.576;8.076;2023-05-07T13:55:33;22.40;99.90
6690;DHT22;3382;51.576;8.076;2023-05-07T13:58:01;22.40;99.90
6690;DHT22;3382;51.576;8.076;2023-05-07T14:00:28;22.20;99.90
6690;DHT22;3382;51.576;8.076;2023-05-07T14:02:55;22.10;99.90
6690;DHT22;3382;51.576;8.076;2023-05-07T14:05:21;22.10;99.90
6690;DHT22;3382;51.576;8.076;2023-05-07T14:07:50;22.10;99.90
6690;DHT22;3382;51.576;8.076;2023-05-07T14:10:17;22.20;99.90
6690;DHT22;3382;51.576;8.076;2023-05-07T14:12:44;22.30;99.90
6690;DHT22;3382;51.576;8.076;2023-05-07T14:15:10;22.30;99.90
6690;DHT22;3382;51.576;8.076;2023-05-07T14:17:35;22.30;99.90
6690;DHT22;3382;51.576;8.076;2023-05-07T14:20:01;22.30;99.90
6690;DHT22;3382;51.576;8.076;2023-05-07T14:22:27;22.40;99.90
6690;DHT22;3382;51.576;8.076;2023-05-07T14:24:52;22.40;99.90
6690;DHT22;3382;51.576;8.076;2023-05-07T14:27:18;22.40;99.90
6690;DHT22;3382;51.576;8.076;2023-05-07T14:29:44;22.50;99.90
6690;DHT22;3382;51.576;8.076;2023-05-07T14:32:11;22.50;99.90
6690;DHT22;3382;51.576;8.076;2023-05-07T14:34:37;22.30;99.90
6690;DHT22;3382;51.576;8.076;2023-05-07T14:37:03;22.40;99.90
6690;DHT22;3382;51.576;8.076;2023-05-07T14:39:28;22.40;99.90
6690;DHT22;3382;51.576;8.076;2023-05-07T14:41:54;22.30;99.90
6690;DHT22;3382;51.576;8.076;2023-05-07T14:44:21;22.40;99.90
6690;DHT22;3382;51.576;8.076;2023-05-07T14:46:47;22.30;99.90
6690;DHT22;3382;51.576;8.076;2023-05-07T14:49:14;22.30;99.90
6690;DHT22;3382;51.576;8.076;2023-05-07T14:51:43;22.20;99.90
6690;DHT22;3382;51.576;8.076;2023-05-07T14:54:09;22.20;99.90
6690;DHT22;3382;51.576;8.076;2023-05-07T14:56:35;22.20;99.90
6690;DHT22;3382;51.576;8.076;2023-05-07T14:59:02;22.20;99.90
6690;DHT22;3382;51.576;8.076;2023-05-07T15:01:28;22.20;99.90
6690;DHT22;3382;51.576;8.076;2023-05-07T15:03:53;22.10;99.90
6690;DHT22;3382;51.576;8.076;2023-05-07T15:06:19;22.10;99.90
6690;DHT22;3382;51.576;8.076;2023-05-07T15:08:45;22.00;99.90
6690;DHT22;3382;51.576;8.076;2023-05-07T15:11:11;21.80;99.90
6690;DHT22;3382;51.576;8.076;2023-05-07T15:13:36;21.70;99.90
6690;DHT22;3382;51.576;8.076;2023-05-07T15:16:02;21.60;99.90
6690;DHT22;3382;51.576;8.076;2023-05-07T15:18:27;21.50;99.90
6690;DHT22;3382;51.576;8.076;2023-05-07T15:20:53;21.40;99.90
6690;DHT22;3382;51.576;8.076;2023-05-07T15:23:19;21.40;99.90
6690;DHT22;3382;51.576;8.076;2023-05-07T15:25:44;21.30;99.90
6690;DHT22;3382;51.576;8.076;2023-05-07T15:28:10;21.30;99.90
6690;DHT22;3382;51.576;8.076;2023-05-07T15:30:36;21.20;99.90
6690;DHT22;3382;51.576;8.076;2023-05-07T15:33:02;21.30;99.90
6690;DHT22;3382;51.576;8.076;2023-05-07T15:35:28;21.20;99.90
6690;DHT22;3382;51.576;8.076;2023-05-07T15:37:54;21.10;99.90
6690;DHT22;3382;51.576;8.076;2023-05-07T15:40:20;21.10;99.90
6690;DHT22;3382;51.576;8.076;2023-05-07T15:42:45;21.10;99.90
6690;DHT22;3382;51.576;8.076;2023-05-07T15:45:11;21.10;99.90
6690;DHT22;3382;51.576;8.076;2023-05-07T15:47:37;21.10;99.90
6690;DHT22;3382;51.576;8.076;2023-05-07T15:50:03;21.10;99.90
6690;DHT22;3382;51.576;8.076;2023-05-07T15:52:29;21.10;99.90
6690;DHT22;3382;51.576;8.076;2023-05-07T15:54:56;21.00;99.90
6690;DHT22;3382;51.576;8.076;2023-05-07T15:57:22;21.00;99.90
6690;DHT22;3382;51.576;8.076;2023-05-07T15:59:48;21.00;99.90
6690;DHT22;3382;51.576;8.076;2023-05-07T16:02:14;21.10;99.90
6690;DHT22;3382;51.576;8.076;2023-05-07T16:04:40;21.10;99.90
6690;DHT22;3382;51.576;8.076;2023-05-07T16:07:06;21.10;99.90
6690;DHT22;3382;51.576;8.076;2023-05-07T16:09:32;21.10;99.90
6690;DHT22;3382;51.576;8.076;2023-05-07T16:11:59;21.10;99.90
6690;DHT22;3382;51.576;8.076;2023-05-07T16:14:28;21.10;99.90
6690;DHT22;3382;51.576;8.076;2023-05-07T16:16:53;21.10;99.90